Time;durP1;ratioP1;P1;durP2;ratioP2;P2;SDS_P1;SDS_P2;PMS_P1;PMS_P2;Temp;Humidity;BMP_temperature;BMP_pressure;BME280_temperature;BME280_humidity;BME280_pressure;Samples;Min_cycle;Max_cycle;Signal;HPM_P1;HPM_P2
2023/10/27 00:00:58;;;;;;;0.32;0.32;;;10.70;99.90;;;;;;5013737;28;20250;-62
2023/10/27 00:03:24;;;;;;;0.30;0.30;;;10.80;99.90;;;;;;5013848;28;20691;-62
2023/10/27 00:05:50;;;;;;;0.90;0.90;;;10.80;99.90;;;;;;5013850;28;20255;-63
2023/10/27 00:08:16;;;;;;;0.30;0.30;;;10.80;99.90;;;;;;5013471;28;20271;-62
2023/10/27 00:10:41;;;;;;;0.30;0.30;;;10.70;99.90;;;;;;5013621;28;20411;-62
2023/10/27 00:13:07;;;;;;;0.60;0.60;;;10.70;99.90;;;;;;5013424;28;20207;-63
2023/10/27 00:15:33;;;;;;;0.50;0.50;;;10.70;99.90;;;;;;5013503;28;20167;-63
2023/10/27 00:17:59;;;;;;;0.40;0.40;;;10.70;99.90;;;;;;5013248;28;20855;-62
2023/10/27 00:20:26;;;;;;;0.30;0.30;;;10.60;99.90;;;;;;4995789;28;20665;-62
2023/10/27 00:22:51;;;;;;;0.40;0.40;;;10.60;99.90;;;;;;5013394;28;20927;-63
2023/10/27 00:25:17;;;;;;;0.30;0.30;;;10.60;99.90;;;;;;5013451;28;20218;-61
2023/10/27 00:27:43;;;;;;;0.40;0.40;;;10.80;99.90;;;;;;5013029;28;20236;-61
2023/10/27 00:30:10;;;;;;;0.40;0.40;;;10.80;99.90;;;;;;5013275;28;20213;-61
2023/10/27 00:32:36;;;;;;;1.17;1.08;;;10.80;99.90;;;;;;5013376;28;20770;-62
2023/10/27 00:35:05;;;;;;;0.40;0.40;;;10.70;99.90;;;;;;5013153;28;20548;-62
2023/10/27 00:37:35;;;;;;;0.40;0.40;;;10.60;99.90;;;;;;5013044;28;20516;-62
2023/10/27 00:40:02;;;;;;;0.40;0.40;;;10.60;99.90;;;;;;5013445;28;20183;-62
2023/10/27 00:42:28;;;;;;;0.40;0.40;;;10.60;99.90;;;;;;5013007;28;20183;-63
2023/10/27 00:44:54;;;;;;;0.30;0.30;;;10.60;99.90;;;;;;5012610;28;20453;-62
2023/10/27 00:47:19;;;;;;;0.30;0.30;;;10.60;99.90;;;;;;5012758;28;20192;-62
2023/10/27 00:49:45;;;;;;;0.37;0.37;;;10.70;99.90;;;;;;5012935;28;20178;-62
2023/10/27 00:52:15;;;;;;;0.40;0.40;;;10.70;99.90;;;;;;5012870;28;20449;-61
2023/10/27 00:54:43;;;;;;;0.40;0.40;;;10.70;99.90;;;;;;5012714;28;20395;-62
2023/10/27 00:57:09;;;;;;;0.40;0.40;;;10.70;99.90;;;;;;5012599;28;20485;-62
2023/10/27 00:59:36;;;;;;;2.63;0.60;;;10.70;99.90;;;;;;5012583;28;20485;-62
2023/10/27 01:02:02;;;;;;;0.30;0.30;;;10.80;99.90;;;;;;5012724;28;20758;-62
2023/10/27 01:04:28;;;;;;;0.47;0.47;;;10.90;99.90;;;;;;5012745;28;20188;-61
2023/10/27 01:06:54;;;;;;;0.40;0.40;;;10.90;99.90;;;;;;5012445;28;20438;-62
2023/10/27 01:09:20;;;;;;;2.03;0.70;;;10.90;99.90;;;;;;5012342;28;20183;-61
2023/10/27 01:11:46;;;;;;;0.30;0.30;;;10.90;99.90;;;;;;5012364;28;20482;-62
2023/10/27 01:14:12;;;;;;;0.30;0.30;;;11.00;99.90;;;;;;5012636;28;20175;-61
2023/10/27 01:16:37;;;;;;;0.30;0.30;;;10.90;99.90;;;;;;5012271;28;20730;-61
2023/10/27 01:19:03;;;;;;;0.30;0.30;;;10.80;99.90;;;;;;5012454;28;20521;-62
2023/10/27 01:21:29;;;;;;;0.30;0.30;;;10.80;99.90;;;;;;5012738;28;20597;-62
2023/10/27 01:23:55;;;;;;;0.47;0.47;;;10.80;99.90;;;;;;5012285;28;20518;-62
2023/10/27 01:26:21;;;;;;;0.43;0.43;;;10.80;99.90;;;;;;5011754;28;20998;-62
2023/10/27 01:28:46;;;;;;;0.30;0.30;;;10.80;99.90;;;;;;5012123;28;20398;-63
2023/10/27 01:31:12;;;;;;;0.40;0.40;;;10.80;99.90;;;;;;5012495;28;20174;-61
2023/10/27 01:33:38;;;;;;;0.40;0.40;;;10.80;99.90;;;;;;5012106;28;20285;-62
2023/10/27 01:36:04;;;;;;;0.30;0.30;;;10.80;99.90;;;;;;5012034;28;20537;-62
2023/10/27 01:38:30;;;;;;;0.30;0.30;;;10.80;99.90;;;;;;5011799;28;20413;-62
2023/10/27 01:40:56;;;;;;;0.30;0.30;;;10.80;99.90;;;;;;5011969;28;20403;-62
2023/10/27 01:43:21;;;;;;;0.40;0.40;;;10.70;99.90;;;;;;5012001;28;20226;-62
2023/10/27 01:45:47;;;;;;;0.40;0.40;;;10.70;99.90;;;;;;5011832;28;20171;-62
2023/10/27 01:48:13;;;;;;;0.40;0.40;;;10.80;99.90;;;;;;5011688;28;20247;-63
2023/10/27 01:50:38;;;;;;;0.30;0.30;;;10.80;99.90;;;;;;5011951;28;20175;-62
2023/10/27 01:53:04;;;;;;;0.30;0.30;;;10.80;99.90;;;;;;5011862;28;20230;-61
2023/10/27 01:55:30;;;;;;;0.70;0.70;;;10.80;99.90;;;;;;5011760;28;20221;-62
2023/10/27 01:57:56;;;;;;;0.30;0.30;;;10.70;99.90;;;;;;5010703;28;20587;-62
2023/10/27 02:00:21;;;;;;;0.30;0.30;;;10.70;99.90;;;;;;5011799;28;20680;-62
2023/10/27 02:02:47;;;;;;;0.40;0.40;;;10.60;99.90;;;;;;5011855;28;20176;-63
2023/10/27 02:05:12;;;;;;;0.40;0.40;;;10.50;99.90;;;;;;5011847;28;20180;-62
2023/10/27 02:07:38;;;;;;;0.40;0.40;;;10.50;99.90;;;;;;5011468;28;20712;-61
2023/10/27 02:10:05;;;;;;;0.40;0.40;;;10.60;99.90;;;;;;5011673;28;20176;-61
2023/10/27 02:12:30;;;;;;;0.50;0.50;;;10.60;99.90;;;;;;5011558;28;20211;-61
2023/10/27 02:14:56;;;;;;;0.30;0.30;;;10.50;99.90;;;;;;5010290;28;20179;-61
2023/10/27 02:17:22;;;;;;;0.30;0.30;;;10.60;99.90;;;;;;5011518;28;20207;-62
2023/10/27 02:19:47;;;;;;;0.40;0.40;;;10.50;99.90;;;;;;5011763;28;20179;-62
2023/10/27 02:22:14;;;;;;;0.30;0.30;;;10.60;99.90;;;;;;5011566;28;20168;-63
2023/10/27 02:24:40;;;;;;;0.40;0.40;;;10.60;99.90;;;;;;5011267;28;20194;-62
2023/10/27 02:27:06;;;;;;;0.30;0.30;;;10.50;99.90;;;;;;5011394;28;20195;-62
2023/10/27 02:29:32;;;;;;;0.50;0.50;;;10.40;99.90;;;;;;5011367;28;20175;-61
2023/10/27 02:31:58;;;;;;;0.40;0.40;;;10.50;99.90;;;;;;5011566;28;20191;-62
2023/10/27 02:34:24;;;;;;;0.30;0.30;;;10.50;99.90;;;;;;5011506;28;20452;-62
2023/10/27 02:36:50;;;;;;;0.80;0.67;;;10.60;99.90;;;;;;5011315;28;20242;-62
2023/10/27 02:39:16;;;;;;;0.30;0.30;;;10.60;99.90;;;;;;5011116;28;20415;-61
2023/10/27 02:41:41;;;;;;;0.40;0.40;;;10.60;99.90;;;;;;5011423;28;20180;-62
2023/10/27 02:44:08;;;;;;;0.50;0.50;;;10.60;99.90;;;;;;5011440;28;20247;-61
2023/10/27 02:46:35;;;;;;;0.30;0.30;;;10.70;99.90;;;;;;4993679;28;20192;-62
2023/10/27 02:49:02;;;;;;;0.30;0.30;;;10.80;99.90;;;;;;5011221;28;20407;-62
2023/10/27 02:51:28;;;;;;;0.43;0.40;;;10.70;99.90;;;;;;5011202;28;20403;-61
2023/10/27 02:53:54;;;;;;;0.30;0.30;;;10.80;99.90;;;;;;5011178;28;20409;-62
2023/10/27 02:56:20;;;;;;;0.40;0.40;;;10.70;99.90;;;;;;5010974;28;20214;-62
2023/10/27 02:58:45;;;;;;;0.30;0.30;;;10.60;99.90;;;;;;5011069;28;20583;-61
2023/10/27 03:01:15;;;;;;;0.30;0.30;;;10.60;99.90;;;;;;5010852;28;20251;-61
2023/10/27 03:03:44;;;;;;;0.40;0.40;;;10.60;99.90;;;;;;5011197;28;20164;-62
2023/10/27 03:06:10;;;;;;;0.30;0.30;;;10.70;99.90;;;;;;5011035;28;20576;-63
2023/10/27 03:08:38;;;;;;;0.30;0.30;;;10.90;99.90;;;;;;5012375;28;20417;-63
2023/10/27 03:11:04;;;;;;;0.30;0.30;;;10.90;99.90;;;;;;5014734;28;20209;-62
2023/10/27 03:13:30;;;;;;;0.30;0.30;;;11.00;99.90;;;;;;5014692;28;20512;-62
2023/10/27 03:16:00;;;;;;;0.30;0.30;;;11.10;99.90;;;;;;5014408;28;20176;-63
2023/10/27 03:18:26;;;;;;;0.30;0.30;;;11.10;99.90;;;;;;5014529;28;20398;-62
2023/10/27 03:20:59;;;;;;;0.30;0.30;;;11.20;99.90;;;;;;5014617;28;20167;-62
2023/10/27 03:23:26;;;;;;;0.30;0.30;;;11.00;99.90;;;;;;5014554;28;20218;-62
2023/10/27 03:25:52;;;;;;;0.30;0.30;;;11.00;99.90;;;;;;5014390;28;20183;-61
2023/10/27 03:28:17;;;;;;;0.30;0.30;;;11.10;99.90;;;;;;5014157;28;21003;-62
2023/10/27 03:30:44;;;;;;;0.30;0.30;;;11.20;99.90;;;;;;5014581;28;20446;-62
2023/10/27 03:33:10;;;;;;;0.40;0.40;;;11.20;99.90;;;;;;5014416;28;20975;-62
2023/10/27 03:35:40;;;;;;;0.30;0.30;;;11.20;99.90;;;;;;5014359;28;20413;-62
2023/10/27 03:38:06;;;;;;;0.30;0.30;;;11.20;99.90;;;;;;5014209;28;20768;-61
2023/10/27 03:40:31;;;;;;;0.30;0.30;;;11.30;99.90;;;;;;5014642;28;20482;-62
2023/10/27 03:42:57;;;;;;;0.33;0.33;;;11.40;99.90;;;;;;5014055;28;20180;-62
2023/10/27 03:45:23;;;;;;;0.30;0.30;;;11.40;99.90;;;;;;5014297;28;20171;-62
2023/10/27 03:47:48;;;;;;;0.30;0.30;;;11.50;99.90;;;;;;5013869;28;20195;-63
2023/10/27 03:50:15;;;;;;;0.30;0.30;;;11.40;99.90;;;;;;5014361;28;20550;-62
2023/10/27 03:52:40;;;;;;;0.30;0.30;;;11.50;99.90;;;;;;5013961;28;20199;-63
2023/10/27 03:55:07;;;;;;;0.30;0.30;;;11.50;99.90;;;;;;5013899;28;20411;-62
2023/10/27 03:57:36;;;;;;;0.40;0.40;;;11.40;99.90;;;;;;5058599;22;20321;-63
2023/10/27 04:00:03;;;;;;;0.30;0.30;;;11.40;99.90;;;;;;5033650;28;20484;-62
2023/10/27 04:02:29;;;;;;;0.30;0.30;;;11.40;99.90;;;;;;5033699;28;20895;-62
2023/10/27 04:04:54;;;;;;;0.30;0.30;;;11.30;99.90;;;;;;5033707;28;20536;-63
2023/10/27 04:07:20;;;;;;;0.33;0.33;;;11.40;99.90;;;;;;5033395;28;20219;-62
2023/10/27 04:09:45;;;;;;;0.30;0.30;;;11.30;99.90;;;;;;5033567;28;20186;-62
2023/10/27 04:12:11;;;;;;;0.40;0.40;;;11.30;99.90;;;;;;5033497;28;20191;-63
2023/10/27 04:14:37;;;;;;;0.30;0.30;;;11.40;99.90;;;;;;5033573;28;20167;-62
2023/10/27 04:17:02;;;;;;;0.40;0.40;;;11.50;99.90;;;;;;5033316;28;20187;-62
2023/10/27 04:19:28;;;;;;;0.30;0.30;;;11.30;99.90;;;;;;5032779;28;20167;-63
2023/10/27 04:21:53;;;;;;;0.30;0.30;;;11.20;99.90;;;;;;5033156;28;20179;-62
2023/10/27 04:24:19;;;;;;;0.30;0.30;;;11.20;99.90;;;;;;5033399;28;20179;-63
2023/10/27 04:26:45;;;;;;;0.40;0.40;;;11.20;99.90;;;;;;5033144;28;20191;-63
2023/10/27 04:29:10;;;;;;;0.30;0.30;;;11.20;99.90;;;;;;5033050;28;20178;-63
2023/10/27 04:31:36;;;;;;;0.30;0.30;;;11.20;99.90;;;;;;5033413;28;20229;-62
2023/10/27 04:34:02;;;;;;;0.30;0.30;;;11.20;99.90;;;;;;5033179;28;20163;-62
2023/10/27 04:36:27;;;;;;;0.30;0.30;;;11.20;99.90;;;;;;5032910;28;20170;-62
2023/10/27 04:38:53;;;;;;;0.40;0.40;;;11.20;99.90;;;;;;5033128;28;20637;-62
2023/10/27 04:41:18;;;;;;;0.60;0.60;;;11.20;99.90;;;;;;5033083;28;20201;-62
2023/10/27 04:43:44;;;;;;;0.50;0.40;;;11.10;99.90;;;;;;5032985;28;20258;-62
2023/10/27 04:46:10;;;;;;;0.40;0.40;;;10.90;99.90;;;;;;5032919;28;20163;-63
2023/10/27 04:48:35;;;;;;;0.40;0.40;;;10.90;99.90;;;;;;5032502;28;20190;-62
2023/10/27 04:51:04;;;;;;;0.40;0.40;;;10.90;99.90;;;;;;5032792;28;20201;-63
2023/10/27 04:53:30;;;;;;;0.30;0.30;;;11.00;99.90;;;;;;5032815;28;20285;-62
2023/10/27 04:55:57;;;;;;;0.40;0.40;;;11.00;99.90;;;;;;5032698;28;20188;-62
2023/10/27 04:58:23;;;;;;;0.50;0.50;;;10.90;99.90;;;;;;5032377;28;20526;-62
2023/10/27 05:00:48;;;;;;;0.40;0.40;;;10.80;99.90;;;;;;5032710;28;20175;-63
2023/10/27 05:03:15;;;;;;;0.40;0.40;;;10.90;99.90;;;;;;5032609;28;20182;-62
2023/10/27 05:05:41;;;;;;;0.30;0.30;;;10.70;99.90;;;;;;5032462;28;20182;-62
2023/10/27 05:08:07;;;;;;;0.30;0.30;;;10.60;99.90;;;;;;5032219;28;20621;-62
2023/10/27 05:10:32;;;;;;;0.50;0.50;;;10.60;99.90;;;;;;5032548;28;20703;-62
2023/10/27 05:12:58;;;;;;;0.40;0.40;;;10.70;99.90;;;;;;5032961;28;20234;-62
2023/10/27 05:15:25;;;;;;;0.40;0.40;;;10.70;99.90;;;;;;5032289;28;20596;-62
2023/10/27 05:17:51;;;;;;;0.40;0.40;;;10.70;99.90;;;;;;5031914;28;20429;-62
2023/10/27 05:20:16;;;;;;;0.30;0.30;;;10.70;99.90;;;;;;5032185;28;20659;-62
2023/10/27 05:22:42;;;;;;;0.50;0.50;;;10.70;99.90;;;;;;5032414;28;20422;-63
2023/10/27 05:25:08;;;;;;;0.40;0.40;;;10.70;99.90;;;;;;5032186;28;20171;-62
2023/10/27 05:27:34;;;;;;;0.60;0.60;;;10.70;99.90;;;;;;5031800;28;20270;-62
2023/10/27 05:30:00;;;;;;;0.40;0.40;;;10.70;99.90;;;;;;5032390;28;20401;-62
2023/10/27 05:32:26;;;;;;;0.30;0.30;;;10.70;99.90;;;;;;5031132;28;20557;-63
2023/10/27 05:34:52;;;;;;;0.40;0.40;;;10.60;99.90;;;;;;5031876;28;20178;-63
2023/10/27 05:37:19;;;;;;;0.30;0.30;;;10.60;99.90;;;;;;5031902;28;20187;-62
2023/10/27 05:39:44;;;;;;;0.40;0.40;;;10.70;99.90;;;;;;5031966;28;20266;-62
2023/10/27 05:42:10;;;;;;;0.30;0.30;;;10.70;99.90;;;;;;5031964;28;20597;-62
2023/10/27 05:44:36;;;;;;;0.30;0.30;;;10.70;99.90;;;;;;5031872;28;20417;-63
2023/10/27 05:47:02;;;;;;;2.73;0.63;;;10.70;99.90;;;;;;5031788;28;20819;-62
2023/10/27 05:49:28;;;;;;;0.40;0.40;;;10.70;99.90;;;;;;5031546;28;20429;-62
2023/10/27 05:51:54;;;;;;;0.40;0.40;;;10.60;99.90;;;;;;5031740;28;20222;-62
2023/10/27 05:54:19;;;;;;;0.30;0.30;;;10.50;99.90;;;;;;5031869;28;20201;-62
2023/10/27 05:56:45;;;;;;;0.50;0.50;;;10.30;99.90;;;;;;5031459;28;20273;-62
2023/10/27 05:59:10;;;;;;;0.40;0.40;;;10.20;99.90;;;;;;5031606;28;20609;-62
2023/10/27 06:01:36;;;;;;;0.40;0.40;;;10.30;99.90;;;;;;5031675;28;20170;-62
2023/10/27 06:04:02;;;;;;;0.30;0.30;;;10.30;99.90;;;;;;5031546;28;20245;-62
2023/10/27 06:06:28;;;;;;;0.50;0.50;;;10.30;99.90;;;;;;5031436;28;20233;-63
2023/10/27 06:08:55;;;;;;;0.60;0.60;;;10.40;99.90;;;;;;5031583;28;20182;-62
2023/10/27 06:11:20;;;;;;;0.60;0.60;;;10.50;99.90;;;;;;5031678;28;20412;-63
2023/10/27 06:13:46;;;;;;;0.30;0.30;;;10.40;99.90;;;;;;5031592;28;20282;-62
2023/10/27 06:16:12;;;;;;;0.40;0.40;;;10.30;99.90;;;;;;5031531;28;21130;-62
2023/10/27 06:18:38;;;;;;;0.30;0.30;;;10.20;99.90;;;;;;5030929;28;20190;-63
2023/10/27 06:21:04;;;;;;;0.30;0.30;;;10.30;99.90;;;;;;5031331;28;20201;-62
2023/10/27 06:23:31;;;;;;;0.40;0.40;;;10.40;99.90;;;;;;5031466;28;20179;-63
2023/10/27 06:25:56;;;;;;;0.40;0.40;;;10.40;99.90;;;;;;5031304;28;20707;-63
2023/10/27 06:28:22;;;;;;;0.70;0.60;;;10.50;99.90;;;;;;5031070;28;20191;-62
2023/10/27 06:30:48;;;;;;;1.60;0.77;;;10.50;99.90;;;;;;5031557;28;20190;-59
2023/10/27 06:33:13;;;;;;;0.50;0.50;;;10.40;99.90;;;;;;5031506;28;20194;-61
2023/10/27 06:35:39;;;;;;;0.37;0.37;;;10.30;99.90;;;;;;5031285;28;20220;-61
2023/10/27 06:38:05;;;;;;;0.50;0.50;;;10.30;99.90;;;;;;5031075;28;20268;-61
2023/10/27 06:40:31;;;;;;;0.60;0.60;;;10.30;99.90;;;;;;5031188;28;20170;-61
2023/10/27 06:42:57;;;;;;;0.50;0.40;;;10.30;99.90;;;;;;5031852;28;20171;-61
2023/10/27 06:45:22;;;;;;;0.83;0.67;;;10.20;99.90;;;;;;5035191;28;20615;-61
2023/10/27 06:47:48;;;;;;;0.30;0.30;;;10.20;99.90;;;;;;5034751;28;20201;-61
2023/10/27 06:50:14;;;;;;;0.30;0.30;;;10.10;99.90;;;;;;5035121;28;20664;-61
2023/10/27 06:52:40;;;;;;;0.40;0.40;;;10.10;99.90;;;;;;5034399;28;20707;-61
2023/10/27 06:55:06;;;;;;;0.50;0.50;;;10.10;99.90;;;;;;5034743;28;20179;-61
2023/10/27 06:57:31;;;;;;;0.30;0.30;;;10.20;99.90;;;;;;5034457;28;20206;-61
2023/10/27 06:59:57;;;;;;;0.40;0.40;;;10.20;99.90;;;;;;5034969;28;20402;-61
2023/10/27 07:02:23;;;;;;;1.33;1.33;;;10.10;99.90;;;;;;5034713;28;20236;-61
2023/10/27 07:04:49;;;;;;;0.40;0.40;;;10.10;99.90;;;;;;5034407;28;20452;-62
2023/10/27 07:07:15;;;;;;;0.60;0.60;;;10.10;99.90;;;;;;5034233;28;20512;-62
2023/10/27 07:09:41;;;;;;;1.77;0.63;;;10.10;99.90;;;;;;5034274;28;20421;-61
2023/10/27 07:12:08;;;;;;;0.50;0.45;;;10.20;99.90;;;;;;5034485;28;20440;-61
2023/10/27 07:14:37;;;;;;;9.35;0.75;;;10.30;99.90;;;;;;5034314;28;20186;-61
2023/10/27 07:17:03;;;;;;;0.35;0.35;;;10.40;99.90;;;;;;5034153;28;20186;-61
2023/10/27 07:19:36;;;;;;;14.67;1.00;;;10.60;99.90;;;;;;5032258;28;20702;-63
2023/10/27 07:22:03;;;;;;;0.40;0.40;;;10.60;99.90;;;;;;5034070;28;20413;-62
2023/10/27 07:24:29;;;;;;;0.50;0.50;;;10.60;99.90;;;;;;5033641;28;20182;-63
2023/10/27 07:26:55;;;;;;;0.50;0.50;;;10.60;99.90;;;;;;5032928;28;20195;-62
2023/10/27 07:29:21;;;;;;;0.55;0.47;;;10.40;99.90;;;;;;5034154;28;20206;-62
2023/10/27 07:31:47;;;;;;;0.60;0.60;;;10.40;99.90;;;;;;5034250;28;20256;-62
2023/10/27 07:34:13;;;;;;;0.50;0.50;;;10.50;99.90;;;;;;5034421;28;20167;-62
2023/10/27 07:36:38;;;;;;;0.80;0.80;;;10.60;99.90;;;;;;5032454;28;20225;-61
2023/10/27 07:39:04;;;;;;;0.40;0.40;;;10.70;99.90;;;;;;5033717;28;20221;-61
2023/10/27 07:41:31;;;;;;;0.30;0.30;;;10.70;99.90;;;;;;5033989;28;20166;-61
2023/10/27 07:43:56;;;;;;;0.40;0.40;;;10.80;99.90;;;;;;5033913;28;20182;-61
2023/10/27 07:46:22;;;;;;;0.60;0.50;;;11.10;99.90;;;;;;5033361;28;20546;-62
2023/10/27 07:48:47;;;;;;;2.40;2.30;;;11.40;99.90;;;;;;5032969;28;20594;-62
2023/10/27 07:51:13;;;;;;;0.40;0.40;;;11.60;99.70;;;;;;5032859;28;20205;-61
2023/10/27 07:53:39;;;;;;;0.50;0.50;;;12.80;99.40;;;;;;5032347;28;20242;-62
2023/10/27 07:56:04;;;;;;;0.40;0.40;;;14.30;96.20;;;;;;5030875;28;20273;-64
2023/10/27 07:58:30;;;;;;;2.23;0.50;;;15.40;93.60;;;;;;5031789;28;20207;-61
2023/10/27 08:00:56;;;;;;;0.83;0.60;;;16.20;91.80;;;;;;5031933;28;20527;-62
2023/10/27 08:03:25;;;;;;;0.70;0.63;;;17.50;90.80;;;;;;5031949;28;20171;-62
2023/10/27 08:05:51;;;;;;;0.47;0.40;;;18.60;85.60;;;;;;5031756;28;20262;-62
2023/10/27 08:08:17;;;;;;;0.40;0.40;;;18.90;84.30;;;;;;5033083;28;20441;-62
2023/10/27 08:10:46;;;;;;;3.60;0.60;;;18.80;83.10;;;;;;5033671;28;20418;-62
2023/10/27 08:13:12;;;;;;;0.67;0.50;;;18.00;82.50;;;;;;5033471;28;20969;-62
2023/10/27 08:15:38;;;;;;;0.60;0.60;;;17.20;85.20;;;;;;5033448;28;20953;-61
2023/10/27 08:18:04;;;;;;;0.40;0.40;;;16.80;90.00;;;;;;5032176;28;20441;-62
2023/10/27 08:20:30;;;;;;;0.60;0.60;;;16.50;87.40;;;;;;5033639;28;20534;-62
2023/10/27 08:22:56;;;;;;;0.63;0.63;;;16.00;89.20;;;;;;5033555;28;20409;-62
2023/10/27 08:25:22;;;;;;;0.30;0.30;;;15.30;89.50;;;;;;5033811;28;20267;-63
2023/10/27 08:27:51;;;;;;;1.23;0.60;;;14.70;91.20;;;;;;5032903;28;20514;-63
2023/10/27 08:30:18;;;;;;;1.13;0.63;;;14.20;92.10;;;;;;5033393;28;20434;-62
2023/10/27 08:32:44;;;;;;;1.03;0.40;;;13.70;93.10;;;;;;5033366;28;20916;-62
2023/10/27 08:35:09;;;;;;;1.87;0.60;;;13.40;94.40;;;;;;5033248;28;20421;-62
2023/10/27 08:37:36;;;;;;;0.40;0.40;;;13.10;95.40;;;;;;5032780;28;20191;-63
2023/10/27 08:40:03;;;;;;;0.50;0.50;;;12.80;96.30;;;;;;5033028;28;20164;-62
2023/10/27 08:42:33;;;;;;;0.47;0.47;;;12.60;96.40;;;;;;5033246;28;20931;-61
2023/10/27 08:44:59;;;;;;;0.40;0.40;;;12.40;96.40;;;;;;5033190;28;20475;-62
2023/10/27 08:47:26;;;;;;;0.47;0.47;;;12.40;97.00;;;;;;5032696;28;20456;-62
2023/10/27 08:49:53;;;;;;;0.40;0.40;;;12.30;96.90;;;;;;5033014;28;20418;-61
2023/10/27 08:52:19;;;;;;;0.60;0.60;;;12.10;96.90;;;;;;5032714;28;20580;-63
2023/10/27 08:54:45;;;;;;;0.30;0.30;;;11.80;98.30;;;;;;5032669;28;20513;-63
2023/10/27 08:57:11;;;;;;;2.63;0.50;;;11.70;99.10;;;;;;5032606;28;20453;-62
2023/10/27 08:59:38;;;;;;;0.43;0.40;;;11.80;99.00;;;;;;5032486;28;20417;-63
2023/10/27 09:02:04;;;;;;;0.90;0.77;;;11.60;98.50;;;;;;5032622;28;20409;-62
2023/10/27 09:04:31;;;;;;;0.30;0.30;;;11.40;99.10;;;;;;5032680;28;20437;-62
2023/10/27 09:06:57;;;;;;;0.30;0.30;;;11.30;99.90;;;;;;5032209;28;20431;-62
2023/10/27 09:09:25;;;;;;;1.70;0.60;;;11.30;99.90;;;;;;5033253;28;20978;-61
2023/10/27 09:11:51;;;;;;;0.30;0.30;;;11.40;99.90;;;;;;5032311;28;20432;-62
2023/10/27 09:14:23;;;;;;;0.50;0.50;;;11.50;99.90;;;;;;5031569;28;20414;-61
2023/10/27 09:16:51;;;;;;;6.63;0.68;;;11.50;99.90;;;;;;5032155;28;20205;-62
2023/10/27 09:19:24;;;;;;;0.47;0.47;;;11.60;99.90;;;;;;5032181;28;20167;-62
2023/10/27 09:21:52;;;;;;;0.40;0.40;;;11.60;99.90;;;;;;5032291;28;20410;-62
2023/10/27 09:24:31;;;;;;;0.30;0.30;;;11.60;99.90;;;;;;5032454;28;20884;-62
2023/10/27 09:27:00;;;;;;;0.60;0.53;;;11.70;99.90;;;;;;5031926;28;20479;-62
2023/10/27 09:29:27;;;;;;;2.00;0.50;;;11.70;99.90;;;;;;5031167;28;20402;-62
2023/10/27 09:31:53;;;;;;;0.80;0.60;;;11.70;99.90;;;;;;5032180;28;20479;-62
2023/10/27 09:34:24;;;;;;;0.30;0.30;;;11.70;99.90;;;;;;5031854;28;20406;-62
2023/10/27 09:36:54;;;;;;;0.40;0.40;;;11.60;99.90;;;;;;5031799;28;20426;-62
2023/10/27 09:39:24;;;;;;;0.40;0.40;;;11.60;99.90;;;;;;5031910;28;20889;-62
2023/10/27 09:42:02;;;;;;;0.50;0.50;;;11.30;99.90;;;;;;5031974;28;20425;-62
2023/10/27 09:44:40;;;;;;;0.57;0.57;;;11.20;99.90;;;;;;5031674;28;20445;-62
2023/10/27 09:47:32;;;;;;;0.40;0.40;;;11.40;99.90;;;;;;5031075;28;20493;-62
2023/10/27 09:50:08;;;;;;;0.30;0.30;;;11.60;99.90;;;;;;5031772;28;20447;-61
2023/10/27 09:52:34;;;;;;;0.40;0.40;;;11.50;99.90;;;;;;5031784;28;20448;-62
2023/10/27 09:55:05;;;;;;;0.40;0.40;;;11.30;99.90;;;;;;5031710;28;20915;-62
2023/10/27 09:57:32;;;;;;;0.30;0.30;;;11.30;99.90;;;;;;5031375;28;20524;-62
2023/10/27 10:00:00;;;;;;;0.40;0.40;;;11.30;99.90;;;;;;5031783;28;20423;-62
2023/10/27 10:02:28;;;;;;;0.40;0.40;;;11.40;99.90;;;;;;5031596;28;20415;-62
2023/10/27 10:05:00;;;;;;;18.37;0.97;;;11.50;99.90;;;;;;5031567;28;20501;-62
2023/10/27 10:07:29;;;;;;;0.40;0.40;;;11.50;99.90;;;;;;5031244;28;20428;-62
2023/10/27 10:09:55;;;;;;;0.40;0.40;;;11.40;99.90;;;;;;5031479;28;20410;-62
2023/10/27 10:12:21;;;;;;;0.30;0.30;;;11.40;99.90;;;;;;5031511;28;20270;-60
2023/10/27 10:14:50;;;;;;;0.40;0.40;;;11.40;99.90;;;;;;5031557;28;20536;-61
2023/10/27 10:17:41;;;;;;;0.30;0.30;;;11.50;99.90;;;;;;5030936;28;20707;-62
2023/10/27 10:20:09;;;;;;;0.30;0.30;;;11.60;99.90;;;;;;5030935;28;20774;-62
2023/10/27 10:22:40;;;;;;;0.40;0.40;;;11.60;99.90;;;;;;5031613;28;20813;-62
2023/10/27 10:25:14;;;;;;;0.83;0.83;;;11.90;99.90;;;;;;5030678;28;20500;-62
2023/10/27 10:28:08;;;;;;;0.40;0.40;;;12.10;99.90;;;;;;5030809;28;20421;-62
2023/10/27 10:30:41;;;;;;;0.30;0.30;;;12.20;99.90;;;;;;5031634;28;20493;-62
2023/10/27 10:33:19;;;;;;;0.40;0.40;;;12.10;99.90;;;;;;5030148;28;20496;-62
2023/10/27 10:35:46;;;;;;;0.40;0.40;;;11.90;99.90;;;;;;5030706;28;20423;-62
